Hlavní strana
METAR-TAF:

METAR-TAF

Letiště :

Tébessa, Alžírsko

zeměpisná šířka: 35-29N, zeměpisná délka: 008-08E, výška: 813 m

Aktuální stav počasí

Zpráva byla vytvořena před 42 minutami, v 02:00 UTC
Severozápadní vítr 8 kt
Teplota 7°C
Vlhkost vzduchu 87%
Tlak 1015 hPa
Viditelnost 10 km a více
Skoro jasno ve výšce 2000 ft
Polojasno ve výšce 3000 ft

METAR: DABS 040200Z 31008KT 9999 FEW020 SCT030 07/05 Q1015

Čas: 03:42 (02:42 UTC)

Předpověď počasí

Zpráva byla vytvořena před 3 hodinami a 42 minutami, v 23:00 UTC
Předpověď platná od 04 v 00 UTC do 04 v 24 UTC
Severoseverovýchodní vítr 8 kt
Viditelnost 10 km a více
Skoro jasno ve výšce 1600 ft
Oblačno až skoro zataženo ve výšce 2600 ft
Pravděpodobnost 30% :
Dočasný
od 04 v 03 UTC do 04 v 09 UTC
Viditelnost: 4000 m
Skoro jasno ve výšce 2000 ft, Cumulonimbus.
déšť

TAF: DABS 032300Z 0400/0424 03008KT 9999 FEW016 BKN026 PROB30 TEMPO 0403/0409 4000 RA FEW020CB

Stav a předpovědi počasí z více než 4 000 letišť (zprávy METAR a TAF).

Červené a žluté tečky na mapě představují dostupné meteorologické stanice.

Když kurzor umístíte na tečku, zobrazí se název stanice.

Pak kliknutím zobrazíte stav a předpověď počasí.

Chcete-li změnit mapu, kliknutím na zelené tlačítko se znaménkem +mapu přiblížíte, kliknutím na zelené tlačítko se znaménkem – mapu oddálíte a kliknutím na zelené šipky přejdete na sousední mapy.


METAR-TAF: